Time;durP1;ratioP1;P1;durP2;ratioP2;P2;SDS_P1;SDS_P2;PMS_P1;PMS_P2;Temp;Humidity;BMP_temperature;BMP_pressure;BME280_temperature;BME280_humidity;BME280_pressure;Samples;Min_cycle;Max_cycle;Signal;HPM_P1;HPM_P2
2022/06/16 00:01:54;;;;;;;;;;;;;;;17.48;60.16;100063.94;4394213;32;20016;-88
2022/06/16 00:04:20;;;;;;;;;;;;;;;17.63;60.16;100057.81;4368011;32;19997;-87
2022/06/16 00:06:45;;;;;;;;;;;;;;;17.41;60.15;100060.78;4394616;32;20321;-88
2022/06/16 00:09:10;;;;;;;;;;;;;;;17.49;60.16;100058.56;4380193;32;25244;-87
2022/06/16 00:11:35;;;;;;;;;;;;;;;17.32;60.15;100057.84;4394471;32;20050;-88
2022/06/16 00:14:01;;;;;;;;;;;;;;;17.24;60.14;100062.62;4380562;32;20014;-88
2022/06/16 00:16:26;;;;;;;;;;;;;;;17.28;60.14;100056.31;4392248;32;33907;-88
2022/06/16 00:18:51;;;;;;;;;;;;;;;17.51;60.15;100053.25;4394022;32;20316;-88
2022/06/16 00:21:16;;;;;;;;;;;;;;;17.35;60.15;100057.66;4393726;32;20970;-87
2022/06/16 00:23:41;;;;;;;;;;;;;;;17.41;60.15;100049.41;4394244;32;20005;-88
2022/06/16 00:26:11;;;;;;;;;;;;;;;17.16;60.14;100055.19;4380066;32;19990;-88
2022/06/16 00:28:37;;;;;;;;;;;;;;;17.15;60.13;100053.47;4368185;32;20010;-89
2022/06/16 00:31:02;;;;;;;;;;;;;;;17.17;60.14;100047.19;4367422;32;27726;-89
2022/06/16 00:33:28;;;;;;;;;;;;;;;17.19;60.13;100047.97;4394135;32;20311;-89
2022/06/16 00:35:53;;;;;;;;;;;;;;;17.44;60.14;100044.84;4367650;32;19979;-89
2022/06/16 00:38:18;;;;;;;;;;;;;;;17.35;60.14;100044.50;4367509;32;20582;-90
2022/06/16 00:40:44;;;;;;;;;;;;;;;17.24;60.15;100044.22;4380976;32;20476;-89
2022/06/16 00:43:09;;;;;;;;;;;;;;;17.41;60.15;100039.75;4368346;32;20021;-89
2022/06/16 00:46:01;;;;;;;;;;;;;;;17.25;60.14;100041.50;4367736;32;19978;-90
2022/06/16 00:48:31;;;;;;;;;;;;;;;17.25;60.14;100038.03;4391239;32;20311;-88
2022/06/16 00:51:11;;;;;;;;;;;;;;;17.16;60.14;100034.97;4380630;32;20001;-89
2022/06/16 00:53:37;;;;;;;;;;;;;;;17.06;60.12;100038.22;4392864;32;19979;-89
2022/06/16 00:56:02;;;;;;;;;;;;;;;17.13;60.13;100031.69;4380390;32;19978;-90
2022/06/16 00:58:28;;;;;;;;;;;;;;;17.19;60.13;100029.53;4367857;32;19995;-90
2022/06/16 01:00:53;;;;;;;;;;;;;;;16.78;60.12;100031.78;4367878;32;20039;-90
2022/06/16 01:04:51;;;;;;;;;;;;;;;16.96;60.13;100022.06;4367712;32;20289;-88
2022/06/16 01:06:20;;;;;;;;;;;;;;;16.91;60.12;100026.72;4382738;32;20070;-89
2022/06/16 01:08:46;;;;;;;;;;;;;;;16.84;60.12;100014.84;4380555;32;20038;-89
2022/06/16 01:13:41;;;;;;;;;;;;;;;16.81;60.11;100015.84;4368040;32;20050;-89
2022/06/16 01:14:00;;;;;;;;;;;;;;;16.76;60.12;100015.22;4382575;32;19998;-88
2022/06/16 01:16:26;;;;;;;;;;;;;;;16.58;60.10;100011.78;4367610;32;20033;-89
2022/06/16 01:18:58;;;;;;;;;;;;;;;16.63;60.11;100013.31;4367732;32;20001;-89
2022/06/16 01:21:32;;;;;;;;;;;;;;;16.86;60.12;100005.09;4367556;32;20330;-90
2022/06/16 01:24:15;;;;;;;;;;;;;;;17.00;60.12;100001.69;4367675;32;19993;-89
2022/06/16 01:26:59;;;;;;;;;;;;;;;16.87;60.12;99999.75;4394007;32;19982;-90
2022/06/16 01:29:33;;;;;;;;;;;;;;;16.71;60.11;100003.28;4394190;32;19986;-89
2022/06/16 01:32:02;;;;;;;;;;;;;;;16.71;60.11;99998.00;4392922;32;20002;-90
2022/06/16 01:34:27;;;;;;;;;;;;;;;16.78;60.12;99997.59;4367787;32;19983;-89
2022/06/16 01:36:56;;;;;;;;;;;;;;;16.67;60.10;99999.97;4392774;32;19990;-90
2022/06/16 01:39:45;;;;;;;;;;;;;;;16.76;60.10;99996.81;4367878;32;19986;-89
2022/06/16 01:42:21;;;;;;;;;;;;;;;16.69;60.10;99992.84;4385147;32;20375;-88
2022/06/16 01:44:58;;;;;;;;;;;;;;;16.69;60.10;99992.00;4380370;32;20372;-90
2022/06/16 01:47:23;;;;;;;;;;;;;;;16.56;60.10;99994.37;4380276;32;20001;-90
2022/06/16 01:49:49;;;;;;;;;;;;;;;16.46;60.09;99993.16;4367706;32;19994;-89
2022/06/16 01:52:18;;;;;;;;;;;;;;;16.50;60.10;99995.53;4380095;32;20069;-90
2022/06/16 01:54:45;;;;;;;;;;;;;;;16.23;60.08;99996.97;4380156;32;20040;-90
2022/06/16 01:57:12;;;;;;;;;;;;;;;16.56;60.10;99991.75;4378689;32;20371;-89
2022/06/16 01:59:49;;;;;;;;;;;;;;;16.33;60.09;99992.13;4378535;32;19995;-88
2022/06/16 02:02:15;;;;;;;;;;;;;;;16.29;60.08;99988.78;4392301;32;20098;-89
2022/06/16 02:04:48;;;;;;;;;;;;;;;16.13;60.08;99995.78;4392354;32;19995;-89
2022/06/16 02:07:16;;;;;;;;;;;;;;;16.27;60.08;99998.53;4366018;32;19975;-89
2022/06/16 02:09:42;;;;;;;;;;;;;;;16.50;60.10;99992.91;4378680;32;19997;-89
2022/06/16 02:12:08;;;;;;;;;;;;;;;16.41;60.09;99990.78;4392135;32;20019;-87
2022/06/16 02:14:42;;;;;;;;;;;;;;;16.53;60.09;99984.88;4378352;32;20308;-88
2022/06/16 02:17:07;;;;;;;;;;;;;;;16.28;60.08;99987.09;4378484;32;20040;-87
2022/06/16 02:19:33;;;;;;;;;;;;;;;16.32;60.09;99990.41;4390524;32;19983;-88
2022/06/16 02:21:58;;;;;;;;;;;;;;;16.27;60.09;99991.50;4378105;32;20036;-88
2022/06/16 02:24:26;;;;;;;;;;;;;;;16.65;60.11;99980.75;4365753;32;19997;-87
2022/06/16 02:26:56;;;;;;;;;;;;;;;16.76;60.10;99981.06;4365854;32;20001;-87
2022/06/16 02:29:29;;;;;;;;;;;;;;;16.74;60.10;99987.31;4365917;32;20323;-88
2022/06/16 02:31:57;;;;;;;;;;;;;;;16.66;60.10;99985.13;4392059;32;20004;-89
2022/06/16 02:34:24;;;;;;;;;;;;;;;16.69;60.10;99987.59;4390697;32;20001;-88
2022/06/16 02:36:53;;;;;;;;;;;;;;;16.53;60.10;99979.63;4378421;32;19997;-90
2022/06/16 02:39:18;;;;;;;;;;;;;;;16.45;60.09;99988.84;4365711;32;19994;-89
2022/06/16 02:42:02;;;;;;;;;;;;;;;16.61;60.09;99981.00;4390665;32;19994;-89
2022/06/16 02:44:27;;;;;;;;;;;;;;;16.59;60.10;99986.34;4390722;32;19971;-90
2022/06/16 02:47:04;;;;;;;;;;;;;;;16.49;60.09;99987.75;4390716;32;19989;-89
2022/06/16 02:49:31;;;;;;;;;;;;;;;16.54;60.10;99976.06;4378227;32;20034;-88
2022/06/16 02:51:59;;;;;;;;;;;;;;;16.27;60.08;99993.25;4378191;32;20070;-89
2022/06/16 02:54:38;;;;;;;;;;;;;;;16.43;60.09;99988.94;4392722;32;19982;-88
2022/06/16 02:57:06;;;;;;;;;;;;;;;16.45;60.09;99992.31;4355985;32;797211;-89
2022/06/16 02:59:35;;;;;;;;;;;;;;;16.56;60.10;99991.75;4381171;32;19983;-89
2022/06/16 03:02:02;;;;;;;;;;;;;;;16.47;60.09;99995.72;4381182;32;19998;-89
2022/06/16 03:04:37;;;;;;;;;;;;;;;16.56;60.10;99992.63;4368738;32;20032;-90
2022/06/16 03:07:03;;;;;;;;;;;;;;;16.45;60.09;99994.09;4381116;32;20047;-89
2022/06/16 03:09:28;;;;;;;;;;;;;;;16.64;60.10;99991.34;4381210;32;19990;-89
2022/06/16 03:11:53;;;;;;;;;;;;;;;16.66;60.11;99994.75;4381187;32;20005;-90
2022/06/16 03:14:19;;;;;;;;;;;;;;;16.53;60.09;99986.66;4368321;32;20040;-89
2022/06/16 03:16:44;;;;;;;;;;;;;;;16.74;60.10;99982.06;4380995;32;20351;-89
2022/06/16 03:19:10;;;;;;;;;;;;;;;16.58;60.10;99982.88;4368623;32;20049;-90
2022/06/16 03:21:35;;;;;;;;;;;;;;;16.39;60.08;99997.06;4369397;32;19990;-90
2022/06/16 03:24:00;;;;;;;;;;;;;;;16.73;60.11;99994.37;4368554;32;19982;-90
2022/06/16 03:26:25;;;;;;;;;;;;;;;16.66;60.10;99987.75;4368426;32;20002;-91
2022/06/16 03:28:51;;;;;;;;;;;;;;;16.90;60.12;99984.72;4368278;32;19986;-91
2022/06/16 03:31:16;;;;;;;;;;;;;;;16.93;60.11;99987.19;4368462;32;20002;-88
2022/06/16 03:33:42;;;;;;;;;;;;;;;17.10;60.13;99992.38;4368196;32;20327;-89
2022/06/16 03:36:07;;;;;;;;;;;;;;;16.83;60.11;99987.69;4380870;32;19966;-89
2022/06/16 03:38:44;;;;;;;;;;;;;;;16.88;60.11;99990.94;4394622;32;20007;-90
2022/06/16 03:41:10;;;;;;;;;;;;;;;16.78;60.12;99989.72;4394739;32;19986;-90
2022/06/16 03:43:35;;;;;;;;;;;;;;;16.71;60.11;99990.97;4368293;32;20335;-88
2022/06/16 03:46:00;;;;;;;;;;;;;;;16.90;60.11;100000.50;4394098;32;20308;-86
2022/06/16 03:48:25;;;;;;;;;;;;;;;17.10;60.13;99992.38;4394317;32;20229;-85
2022/06/16 03:50:51;;;;;;;;;;;;;;;17.15;60.13;99991.19;4394324;32;19993;-86
2022/06/16 03:53:16;;;;;;;;;;;;;;;17.30;60.13;99994.78;4394214;32;20022;-85
2022/06/16 03:55:41;;;;;;;;;;;;;;;17.41;60.14;99986.25;4394159;32;19982;-85
2022/06/16 03:58:07;;;;;;;;;;;;;;;17.46;60.15;99990.31;4380535;32;19978;-86
2022/06/16 04:00:32;;;;;;;;;;;;;;;17.41;60.14;99992.38;4392954;32;19990;-85
2022/06/16 04:05:42;;;;;;;;;;;;;;;17.85;60.17;99990.81;4382529;32;19961;-85
2022/06/16 04:08:07;;;;;;;;;;;;;;;17.93;60.17;99992.03;4380513;32;20023;-85
2022/06/16 04:10:33;;;;;;;;;;;;;;;18.03;60.18;99993.22;4380374;32;20067;-85
2022/06/16 04:12:58;;;;;;;;;;;;;;;18.18;60.18;100001.12;4380233;32;20328;-85
2022/06/16 04:15:23;;;;;;;;;;;;;;;18.33;60.19;100002.87;4380480;32;20006;-85
2022/06/16 04:17:48;;;;;;;;;;;;;;;18.23;60.19;100004.38;4393296;32;31282;-86
2022/06/16 04:20:14;;;;;;;;;;;;;;;18.29;60.18;100010.13;4367195;32;28457;-86
2022/06/16 04:22:39;;;;;;;;;;;;;;;18.45;60.19;100003.91;4394067;32;20236;-86
2022/06/16 04:25:05;;;;;;;;;;;;;;;18.66;60.20;100003.50;4380061;32;20336;-85
2022/06/16 04:27:30;;;;;;;;;;;;;;;18.69;60.20;99999.81;4367800;32;20283;-85
2022/06/16 04:29:56;;;;;;;;;;;;;;;18.70;60.21;99999.75;4394163;32;19997;-86
2022/06/16 04:32:21;;;;;;;;;;;;;;;18.89;60.22;100006.50;4393356;32;23302;-86
2022/06/16 04:34:46;;;;;;;;;;;;;;;18.83;60.21;100002.44;4393018;32;19997;-86
2022/06/16 04:37:11;;;;;;;;;;;;;;;18.91;60.21;100004.59;4379877;32;26495;-86
2022/06/16 04:39:37;;;;;;;;;;;;;;;19.02;60.23;100010.94;4363771;32;27963;-85
2022/06/16 04:42:02;;;;;;;;;;;;;;;19.10;60.23;100004.31;4391834;32;19990;-86
2022/06/16 04:44:27;;;;;;;;;;;;;;;19.31;60.24;100003.78;4378391;32;19979;-87
2022/06/16 04:46:52;;;;;;;;;;;;;;;19.41;60.25;100000.59;4392193;32;20229;-86
2022/06/16 04:49:18;;;;;;;;;;;;;;;19.53;60.25;99999.78;4396602;32;19978;-85
2022/06/16 04:51:43;;;;;;;;;;;;;;;19.77;60.27;100000.84;4392755;32;19987;-86
2022/06/16 04:54:08;;;;;;;;;;;;;;;20.01;60.28;99994.88;4392428;32;19998;-85
2022/06/16 04:56:33;;;;;;;;;;;;;;;20.14;60.27;99998.41;4378292;32;24998;-85
2022/06/16 04:58:58;;;;;;;;;;;;;;;20.20;60.28;99996.19;4391838;32;28991;-85
2022/06/16 05:01:24;;;;;;;;;;;;;;;20.18;60.29;99998.09;4378798;32;20025;-84
2022/06/16 05:03:49;;;;;;;;;;;;;;;20.28;60.29;100000.09;4392189;32;21232;-84
2022/06/16 05:06:14;;;;;;;;;;;;;;;20.56;60.31;99999.91;4392515;32;20026;-84
2022/06/16 05:08:39;;;;;;;;;;;;;;;20.66;60.31;100003.63;4378663;32;20028;-86
2022/06/16 05:11:05;;;;;;;;;;;;;;;20.65;60.31;99998.44;4392030;32;22028;-86
2022/06/16 05:13:30;;;;;;;;;;;;;;;20.71;60.32;99990.06;4398458;32;30419;-86
2022/06/16 05:15:55;;;;;;;;;;;;;;;20.84;60.32;99994.41;4381900;32;20006;-85
2022/06/16 05:18:21;;;;;;;;;;;;;;;20.92;60.32;99996.50;4392591;32;20016;-86
2022/06/16 05:20:46;;;;;;;;;;;;;;;21.06;60.33;99998.19;4366271;32;19982;-86
2022/06/16 05:23:12;;;;;;;;;;;;;;;21.02;60.33;99994.88;4365605;32;20009;-86
2022/06/16 05:25:37;;;;;;;;;;;;;;;21.24;60.33;99994.22;4378615;32;19986;-86
2022/06/16 05:28:03;;;;;;;;;;;;;;;21.22;60.34;99990.81;4365840;32;20018;-84
2022/06/16 05:30:28;;;;;;;;;;;;;;;21.36;60.35;99997.81;4365949;32;20389;-86
2022/06/16 05:32:53;;;;;;;;;;;;;;;21.42;60.35;99992.91;4377605;32;28833;-86
2022/06/16 05:35:19;;;;;;;;;;;;;;;21.58;60.36;99999.72;4387593;32;33993;-86
2022/06/16 05:37:44;;;;;;;;;;;;;;;21.86;60.38;99990.56;4384930;32;20040;-87
2022/06/16 05:40:09;;;;;;;;;;;;;;;21.88;60.37;99988.66;4391463;32;22055;-87
2022/06/16 05:42:34;;;;;;;;;;;;;;;21.87;60.37;99990.47;4388256;32;20078;-86
2022/06/16 05:45:00;;;;;;;;;;;;;;;22.23;60.39;99993.97;4399201;32;22570;-86
2022/06/16 05:47:25;;;;;;;;;;;;;;;22.18;60.39;99994.31;4396973;32;20052;-87
2022/06/16 05:49:50;;;;;;;;;;;;;;;22.25;60.40;99987.59;4397424;32;19993;-87
2022/06/16 05:52:18;;;;;;;;;;;;;;;22.41;60.39;99986.41;4377564;32;28487;-87
2022/06/16 05:54:43;;;;;;;;;;;;;;;22.31;60.39;99983.63;4378427;32;20307;-87
2022/06/16 05:57:08;;;;;;;;;;;;;;;22.56;60.40;99978.09;4391646;32;20024;-86
2022/06/16 05:59:34;;;;;;;;;;;;;;;22.66;60.42;99976.41;4388066;32;20013;-84
2022/06/16 06:01:59;;;;;;;;;;;;;;;22.72;60.43;99977.75;4386691;32;20005;-87
2022/06/16 06:04:25;;;;;;;;;;;;;;;22.73;60.42;99982.09;4387422;32;32452;-87
2022/06/16 06:06:50;;;;;;;;;;;;;;;22.96;60.44;99983.81;4387685;32;20026;-87
2022/06/16 06:17:27;;;;;;;;;;;;;;;23.53;60.46;99976.56;4391693;32;20267;-87
2022/06/16 06:19:52;;;;;;;;;;;;;;;23.69;60.47;99970.87;4377687;32;19994;-87
2022/06/16 06:22:19;;;;;;;;;;;;;;;23.86;60.48;99975.59;4377319;32;20284;-87
2022/06/16 06:24:48;;;;;;;;;;;;;;;24.05;60.49;99965.09;4377832;32;20451;-87
2022/06/16 06:27:17;;;;;;;;;;;;;;;24.18;60.49;99981.72;4392395;32;20005;-87
2022/06/16 06:29:42;;;;;;;;;;;;;;;24.32;60.50;99964.59;4379560;32;20054;-87
2022/06/16 06:32:08;;;;;;;;;;;;;;;24.36;60.50;99959.84;4379709;32;20001;-87
2022/06/16 06:34:33;;;;;;;;;;;;;;;24.68;60.52;99968.56;4389901;32;20006;-87
2022/06/16 06:36:58;;;;;;;;;;;;;;;25.09;60.54;99964.13;4389307;32;23756;-87
2022/06/16 06:39:24;;;;;;;;;;;;;;;25.51;60.56;99974.56;4391282;32;20037;-87
2022/06/16 06:41:49;;;;;;;;;;;;;;;25.72;60.58;99971.78;4366680;32;36296;-87
2022/06/16 06:44:14;;;;;;;;;;;;;;;26.02;60.59;99968.97;4391287;32;23037;-86
2022/06/16 06:46:39;;;;;;;;;;;;;;;26.45;60.61;99968.47;4393775;32;19975;-87
2022/06/16 06:49:05;;;;;;;;;;;;;;;26.72;60.63;99965.00;4380107;32;20330;-87
2022/06/16 06:51:33;;;;;;;;;;;;;;;27.05;60.64;99955.59;4393668;32;19978;-87
2022/06/16 06:53:58;;;;;;;;;;;;;;;27.28;60.66;99957.88;4389653;32;20049;-86
2022/06/16 06:56:24;;;;;;;;;;;;;;;27.46;60.67;99956.06;4385150;32;20002;-87
2022/06/16 06:58:49;;;;;;;;;;;;;;;27.56;60.66;99961.31;4379749;32;20010;-87
2022/06/16 07:01:15;;;;;;;;;;;;;;;27.68;60.68;99955.63;4379740;32;20030;-87
2022/06/16 07:03:40;;;;;;;;;;;;;;;27.57;60.66;99958.47;4389445;32;30890;-88
2022/06/16 07:06:05;;;;;;;;;;;;;;;27.78;60.68;99955.53;4393907;32;20407;-87
2022/06/16 07:08:31;;;;;;;;;;;;;;;27.76;60.68;99958.38;4380851;32;19986;-88
2022/06/16 07:10:56;;;;;;;;;;;;;;;27.97;60.68;99954.50;4394472;32;20001;-87
2022/06/16 07:13:21;;;;;;;;;;;;;;;27.96;60.68;99955.50;4394752;32;20026;-87
2022/06/16 07:15:46;;;;;;;;;;;;;;;28.22;60.71;99952.84;4393134;32;19998;-87
2022/06/16 07:18:11;;;;;;;;;;;;;;;28.46;60.72;99955.72;4380419;32;20151;-87
2022/06/16 07:20:37;;;;;;;;;;;;;;;28.61;60.72;99950.59;4380806;32;19989;-88
2022/06/16 07:23:02;;;;;;;;;;;;;;;28.85;60.74;99953.41;4394109;32;25038;-87
2022/06/16 07:25:27;;;;;;;;;;;;;;;28.91;60.73;99938.53;4394149;32;22877;-87
2022/06/16 07:27:53;;;;;;;;;;;;;;;28.99;60.74;99943.91;4368252;32;19974;-88
2022/06/16 07:30:18;;;;;;;;;;;;;;;29.01;60.75;99945.44;4368256;32;19990;-87
2022/06/16 07:32:44;;;;;;;;;;;;;;;29.13;60.75;99947.81;4394585;32;19991;-87
2022/06/16 07:35:09;;;;;;;;;;;;;;;28.92;60.75;99943.72;4394575;32;19997;-87
2022/06/16 07:37:35;;;;;;;;;;;;;;;29.09;60.74;99943.75;4380769;32;19982;-87
2022/06/16 07:40:01;;;;;;;;;;;;;;;29.17;60.76;99944.66;4393983;32;19982;-87
2022/06/16 07:42:27;;;;;;;;;;;;;;;29.30;60.76;99939.63;4394528;32;20025;-88
2022/06/16 07:44:52;;;;;;;;;;;;;;;29.64;60.78;99939.56;4394515;32;19987;-87
2022/06/16 07:47:17;;;;;;;;;;;;;;;29.77;60.78;99935.50;4380255;32;19987;-88
2022/06/16 07:49:43;;;;;;;;;;;;;;;29.73;60.78;99935.03;4380157;32;24582;-87
2022/06/16 07:52:08;;;;;;;;;;;;;;;30.03;60.80;99938.00;4380717;32;20026;-88
2022/06/16 07:54:34;;;;;;;;;;;;;;;30.23;60.80;99934.81;4380699;32;20004;-87
2022/06/16 07:56:59;;;;;;;;;;;;;;;30.52;60.81;99919.97;4379957;32;24190;-88
2022/06/16 07:59:24;;;;;;;;;;;;;;;30.53;60.83;99932.41;4394529;32;20018;-88
2022/06/16 08:01:49;;;;;;;;;;;;;;;30.60;60.83;99928.03;4394200;32;20093;-88
2022/06/16 08:04:15;;;;;;;;;;;;;;;30.73;60.83;99922.94;4394348;32;20028;-88
2022/06/16 08:06:41;;;;;;;;;;;;;;;30.75;60.83;99918.22;4394247;32;20335;-87
2022/06/16 08:09:06;;;;;;;;;;;;;;;30.48;60.82;99922.16;4394345;32;19974;-87
2022/06/16 08:14:15;;;;;;;;;;;;;;;30.43;60.81;99929.06;4394470;32;20021;-87
2022/06/16 08:16:41;;;;;;;;;;;;;;;30.29;60.82;99927.97;4379736;32;32616;-87
2022/06/16 08:19:06;;;;;;;;;;;;;;;30.30;60.82;99929.62;4380480;32;20034;-88
2022/06/16 08:21:31;;;;;;;;;;;;;;;29.75;60.79;99930.31;4393692;32;24425;-87
2022/06/16 08:23:56;;;;;;;;;;;;;;;29.71;60.78;99938.88;4394248;32;20331;-87
2022/06/16 08:26:21;;;;;;;;;;;;;;;29.69;60.79;99933.69;4379829;32;29907;-87
2022/06/16 08:28:47;;;;;;;;;;;;;;;29.80;60.80;99935.19;4393639;32;28760;-87
2022/06/16 08:31:12;;;;;;;;;;;;;;;29.55;60.79;99945.91;4380353;32;20005;-87
2022/06/16 08:33:37;;;;;;;;;;;;;;;29.47;60.77;99943.22;4380478;32;20425;-87
2022/06/16 08:36:03;;;;;;;;;;;;;;;29.35;60.77;99947.22;4380334;32;19971;-87
2022/06/16 08:38:28;;;;;;;;;;;;;;;29.58;60.78;99942.91;4380329;32;20005;-86
2022/06/16 08:41:11;;;;;;;;;;;;;;;29.85;60.79;99941.75;4379477;32;33888;-85
2022/06/16 08:43:37;;;;;;;;;;;;;;;30.19;60.82;99946.94;4369622;32;20382;-85
2022/06/16 08:46:03;;;;;;;;;;;;;;;30.51;60.83;99939.78;4380372;32;19998;-85
2022/06/16 08:48:34;;;;;;;;;;;;;;;30.87;60.85;99937.50;4380456;32;19993;-84
2022/06/16 08:50:59;;;;;;;;;;;;;;;31.14;60.85;99933.50;4379178;32;19997;-83
2022/06/16 08:53:30;;;;;;;;;;;;;;;31.46;60.88;99930.63;4392905;32;20026;-82
2022/06/16 08:55:57;;;;;;;;;;;;;;;31.49;60.88;99934.00;4390062;32;19994;-82
2022/06/16 08:58:40;;;;;;;;;;;;;;;31.52;60.87;99939.00;4377917;32;19979;-82
2022/06/16 09:01:07;;;;;;;;;;;;;;;31.83;60.90;99936.25;4365275;32;20001;-81
2022/06/16 09:03:35;;;;;;;;;;;;;;;31.91;60.90;99931.63;4377838;32;19998;-80
2022/06/16 09:06:04;;;;;;;;;;;;;;;31.88;60.90;99933.84;4377550;32;19982;-80
2022/06/16 09:08:35;;;;;;;;;;;;;;;32.03;60.91;99935.56;4377773;32;20118;-80
2022/06/16 09:11:00;;;;;;;;;;;;;;;32.18;60.90;99924.84;4377539;32;20061;-80
2022/06/16 09:13:32;;;;;;;;;;;;;;;32.43;60.92;99920.03;4377588;32;19998;-80
2022/06/16 09:16:09;;;;;;;;;;;;;;;32.63;60.93;99921.12;4378888;32;20358;-80
2022/06/16 09:18:57;;;;;;;;;;;;;;;32.52;60.93;99921.59;4378921;32;20005;-80
2022/06/16 09:21:28;;;;;;;;;;;;;;;32.60;60.93;99929.59;4364983;32;19991;-80
2022/06/16 09:24:06;;;;;;;;;;;;;;;32.79;60.94;99925.50;4377568;32;20398;-80
2022/06/16 09:26:36;;;;;;;;;;;;;;;32.56;60.93;99916.69;4378640;32;20015;-80
2022/06/16 09:29:06;;;;;;;;;;;;;;;32.74;60.93;99916.28;4377612;32;19998;-81
2022/06/16 09:31:40;;;;;;;;;;;;;;;32.56;60.93;99912.13;4377471;32;20320;-80
2022/06/16 09:34:11;;;;;;;;;;;;;;;32.72;60.94;99915.66;4378652;32;20328;-81
2022/06/16 09:36:40;;;;;;;;;;;;;;;33.04;60.96;99920.62;4377425;32;19979;-81
2022/06/16 09:39:07;;;;;;;;;;;;;;;33.17;60.97;99911.84;4377399;32;20319;-82
2022/06/16 09:44:23;;;;;;;;;;;;;;;33.41;60.98;99894.50;4378674;32;20021;-81
2022/06/16 09:46:49;;;;;;;;;;;;;;;33.44;60.97;99891.41;4377197;32;19975;-82
2022/06/16 09:49:17;;;;;;;;;;;;;;;33.51;60.98;99889.59;4377406;32;20046;-82
2022/06/16 09:51:50;;;;;;;;;;;;;;;33.68;60.98;99887.47;4364748;32;19998;-82
2022/06/16 09:54:17;;;;;;;;;;;;;;;33.90;61.00;99886.41;4377351;32;20661;-82
2022/06/16 09:56:42;;;;;;;;;;;;;;;33.85;60.99;99892.41;4377021;32;20101;-82
2022/06/16 09:59:18;;;;;;;;;;;;;;;34.01;61.00;99888.56;4378456;32;20320;-82
2022/06/16 10:01:54;;;;;;;;;;;;;;;33.96;61.00;99892.91;4377556;32;19986;-82
2022/06/16 10:04:20;;;;;;;;;;;;;;;33.89;61.00;99882.06;4379110;32;20343;-82
2022/06/16 10:07:01;;;;;;;;;;;;;;;33.77;60.99;99889.81;4378751;32;20028;-82
2022/06/16 10:09:26;;;;;;;;;;;;;;;33.93;61.00;99885.19;4378932;32;19975;-82
2022/06/16 10:11:51;;;;;;;;;;;;;;;34.09;61.01;99882.19;4380112;32;19975;-82
2022/06/16 10:14:19;;;;;;;;;;;;;;;34.13;61.02;99889.69;4380085;32;19979;-81
2022/06/16 10:16:48;;;;;;;;;;;;;;;34.33;61.02;99889.00;4380220;32;20046;-82
2022/06/16 10:19:13;;;;;;;;;;;;;;;34.33;61.02;99872.78;4378860;32;19982;-82
2022/06/16 10:21:38;;;;;;;;;;;;;;;34.44;61.03;99877.63;4379296;32;31506;-82
2022/06/16 10:24:03;;;;;;;;;;;;;;;34.43;61.03;99874.09;4378732;32;19991;-82
2022/06/16 10:26:29;;;;;;;;;;;;;;;34.36;61.02;99870.53;4378773;32;19986;-83
2022/06/16 10:29:01;;;;;;;;;;;;;;;34.37;61.02;99874.91;4379966;32;19994;-82
2022/06/16 10:31:38;;;;;;;;;;;;;;;34.40;61.02;99868.25;4378748;32;19995;-82
2022/06/16 10:34:04;;;;;;;;;;;;;;;34.38;61.02;99876.56;4378891;32;19998;-82
2022/06/16 10:36:30;;;;;;;;;;;;;;;34.44;61.03;99886.56;4379886;32;19967;-82
2022/06/16 10:39:14;;;;;;;;;;;;;;;34.47;61.03;99886.16;4378669;32;20001;-82
2022/06/16 10:41:43;;;;;;;;;;;;;;;34.51;61.04;99886.59;4380143;32;19997;-82
2022/06/16 10:44:13;;;;;;;;;;;;;;;34.63;61.04;99878.75;4378961;32;20370;-82
2022/06/16 10:46:49;;;;;;;;;;;;;;;34.78;61.04;99883.00;4378829;32;20037;-82
2022/06/16 10:49:19;;;;;;;;;;;;;;;34.64;61.04;99883.97;4378962;32;20042;-82
2022/06/16 10:51:52;;;;;;;;;;;;;;;34.58;61.03;99881.25;4378893;32;19994;-82
2022/06/16 10:54:25;;;;;;;;;;;;;;;34.09;61.01;99883.03;4380118;32;19991;-82
2022/06/16 10:56:50;;;;;;;;;;;;;;;33.85;61.00;99875.38;4378725;32;20339;-81
2022/06/16 10:59:20;;;;;;;;;;;;;;;33.84;61.00;99879.94;4377992;32;22204;-82
2022/06/16 11:01:46;;;;;;;;;;;;;;;33.83;61.00;99872.88;4378459;32;20059;-82
2022/06/16 11:04:18;;;;;;;;;;;;;;;33.64;61.00;99870.00;4378589;32;20034;-82
2022/06/16 11:06:52;;;;;;;;;;;;;;;33.66;60.99;99876.84;4378512;32;20256;-82
2022/06/16 11:09:18;;;;;;;;;;;;;;;33.66;60.99;99860.66;4378540;32;20332;-82
2022/06/16 11:11:53;;;;;;;;;;;;;;;33.47;60.99;99854.06;4378528;32;19983;-82
2022/06/16 11:14:20;;;;;;;;;;;;;;;33.54;60.98;99859.50;4378994;32;20045;-82
2022/06/16 11:16:49;;;;;;;;;;;;;;;33.39;60.98;99853.38;4366247;32;20451;-82
2022/06/16 11:19:16;;;;;;;;;;;;;;;33.48;60.99;99853.03;4378754;32;19983;-82
2022/06/16 11:21:44;;;;;;;;;;;;;;;33.49;60.98;99843.06;4378579;32;19987;-83
2022/06/16 11:24:20;;;;;;;;;;;;;;;33.74;61.00;99841.59;4366270;32;20009;-82
2022/06/16 11:26:45;;;;;;;;;;;;;;;34.06;61.01;99828.53;4379796;32;19975;-82
2022/06/16 11:29:10;;;;;;;;;;;;;;;34.28;61.02;99830.12;4379267;32;26288;-82
2022/06/16 11:31:45;;;;;;;;;;;;;;;34.41;61.02;99824.81;4379848;32;19978;-82
2022/06/16 11:34:18;;;;;;;;;;;;;;;34.38;61.03;99825.22;4378706;32;20012;-82
2022/06/16 11:36:46;;;;;;;;;;;;;;;34.42;61.04;99821.06;4366075;32;19998;-82
2022/06/16 11:39:30;;;;;;;;;;;;;;;34.27;61.02;99814.09;4378353;32;19983;-82
2022/06/16 11:41:55;;;;;;;;;;;;;;;34.04;61.01;99817.94;4379682;32;19997;-81
2022/06/16 11:44:39;;;;;;;;;;;;;;;34.17;61.01;99814.47;4378570;32;20317;-82
2022/06/16 11:47:04;;;;;;;;;;;;;;;34.14;61.01;99813.03;4379421;32;20296;-82
2022/06/16 11:49:32;;;;;;;;;;;;;;;34.29;61.02;99803.91;4379451;32;20299;-82
2022/06/16 11:52:00;;;;;;;;;;;;;;;34.25;61.02;99795.37;4379476;32;19983;-82
2022/06/16 11:54:52;;;;;;;;;;;;;;;34.25;61.02;99794.56;4379367;32;20402;-82
2022/06/16 11:57:21;;;;;;;;;;;;;;;34.08;61.01;99794.09;4355048;32;20003;-82
2022/06/16 11:59:46;;;;;;;;;;;;;;;34.16;61.01;99791.19;4365845;32;19987;-82
2022/06/16 12:02:14;;;;;;;;;;;;;;;34.20;61.02;99791.62;4378300;32;19991;-82
2022/06/16 12:04:39;;;;;;;;;;;;;;;34.53;61.04;99791.78;4378413;32;19994;-82
2022/06/16 12:07:27;;;;;;;;;;;;;;;34.59;61.04;99788.28;4379249;32;20397;-82
2022/06/16 12:09:59;;;;;;;;;;;;;;;34.54;61.03;99785.34;4378112;32;19990;-82
2022/06/16 12:12:33;;;;;;;;;;;;;;;34.22;61.02;99793.09;4379239;32;20045;-83
2022/06/16 12:15:17;;;;;;;;;;;;;;;34.13;61.02;99787.03;4379284;32;20054;-83
2022/06/16 12:17:59;;;;;;;;;;;;;;;33.97;61.01;99790.06;4379456;32;20253;-82
2022/06/16 12:20:37;;;;;;;;;;;;;;;34.01;61.01;99790.50;4378379;32;20001;-83
2022/06/16 12:23:02;;;;;;;;;;;;;;;33.98;61.01;99788.19;4377875;32;20398;-82
2022/06/16 12:25:36;;;;;;;;;;;;;;;33.99;61.01;99789.84;4379050;32;19994;-82
2022/06/16 12:28:08;;;;;;;;;;;;;;;33.91;61.01;99790.03;4377916;32;19974;-82
2022/06/16 12:30:37;;;;;;;;;;;;;;;33.93;61.01;99791.50;4377946;32;19993;-82
2022/06/16 12:33:12;;;;;;;;;;;;;;;33.78;60.99;99796.97;4377799;32;19991;-82
2022/06/16 12:36:01;;;;;;;;;;;;;;;33.78;60.99;99793.44;4365451;32;20017;-82
2022/06/16 12:38:28;;;;;;;;;;;;;;;33.74;61.00;99790.31;4371312;32;19986;-82
2022/06/16 12:40:54;;;;;;;;;;;;;;;33.69;60.99;99790.06;4378047;32;19991;-82
2022/06/16 12:43:19;;;;;;;;;;;;;;;33.56;60.99;99787.25;4365630;32;19991;-82
2022/06/16 12:45:45;;;;;;;;;;;;;;;33.64;60.99;99779.03;4377693;32;20477;-82
2022/06/16 12:48:12;;;;;;;;;;;;;;;33.52;60.98;99777.91;4377972;32;19989;-82
2022/06/16 12:50:43;;;;;;;;;;;;;;;33.40;60.98;99771.38;4377822;32;20045;-82
2022/06/16 12:53:19;;;;;;;;;;;;;;;33.55;60.99;99762.13;4377939;32;20009;-82
2022/06/16 12:55:46;;;;;;;;;;;;;;;33.91;61.01;99758.47;4379503;32;20012;-82
2022/06/16 12:58:14;;;;;;;;;;;;;;;34.20;61.03;99753.81;4380362;32;20349;-82
2022/06/16 13:00:42;;;;;;;;;;;;;;;34.29;61.02;99739.91;4392760;32;20349;-82
2022/06/16 13:03:20;;;;;;;;;;;;;;;34.13;61.02;99737.56;4380296;32;19994;-82
2022/06/16 13:05:45;;;;;;;;;;;;;;;34.15;61.02;99733.63;4393985;32;20050;-82
2022/06/16 13:08:10;;;;;;;;;;;;;;;34.27;61.02;99722.22;4367154;32;25362;-82